Current Weather

Kayes/Dag-Dag

Kayes/Dag-Dag, Mali (GAKD)

Report from: Monday, May 23, 2022 6:00 AM UTC
Current time: Monday, May 23, 2022 7:54 AM UTC

Nearby weather
Weather history
Weather forecast

Temperature28.0°C (82.4°F)
Heat index27.5°C (81.5°F)
Dew point10.0°C (50.0°F)
Winds 6 kts (3.1 m/s, 6.9 mph) Northwest (320°)
Clouds Sky clear
Altimeter29.85 in.Hg (1011 mB)
Relative humidity33 %
Density altitude1,747 ft. (533 m)
Remarks Ceiling and visibility OK
Flight conditions Visual Meteorological Conditions
Raw dataGAKD 230600Z 32006KT CAVOK 28/10 Q1011
An error has occurred. This application may no longer respond until reloaded. Reload 🗙